Time;durP1;ratioP1;P1;durP2;ratioP2;P2;SDS_P1;SDS_P2;PMS_P1;PMS_P2;Temp;Humidity;BMP_temperature;BMP_pressure;BME280_temperature;BME280_humidity;BME280_pressure;Samples;Min_cycle;Max_cycle;Signal;HPM_P1;HPM_P2
2023/05/06 00:01:39;;;;;;;;;;;;;;;13.51;100.00;95951.81;5073358;28;19935;-73
2023/05/06 00:04:05;;;;;;;;;;;;;;;13.50;100.00;95943.19;5079888;28;20390;-73
2023/05/06 00:06:33;;;;;;;;;;;;;;;13.48;100.00;95939.00;5089394;28;20374;-73
2023/05/06 00:08:59;;;;;;;;;;;;;;;13.50;100.00;95947.56;5089363;28;19925;-73
2023/05/06 00:11:26;;;;;;;;;;;;;;;13.46;100.00;95939.13;5082226;28;19993;-73
2023/05/06 00:13:52;;;;;;;;;;;;;;;13.39;100.00;95940.50;5084086;28;20059;-72
2023/05/06 00:16:19;;;;;;;;;;;;;;;13.20;100.00;95940.97;5085827;28;19971;-72
2023/05/06 00:18:45;;;;;;;;;;;;;;;13.14;100.00;95940.56;5091354;28;19924;-72
2023/05/06 00:21:11;;;;;;;;;;;;;;;12.96;100.00;95948.69;5091000;28;19924;-73
2023/05/06 00:23:39;;;;;;;;;;;;;;;12.96;100.00;95950.47;5081352;28;19982;-73
2023/05/06 00:26:05;;;;;;;;;;;;;;;12.91;100.00;95939.56;5078007;28;20401;-72
2023/05/06 00:28:32;;;;;;;;;;;;;;;12.90;100.00;95943.06;5090517;28;19924;-72
2023/05/06 00:30:58;;;;;;;;;;;;;;;12.92;100.00;95936.84;5081660;28;19970;-72
2023/05/06 00:33:25;;;;;;;;;;;;;;;12.93;100.00;95933.28;5078194;28;19928;-72
2023/05/06 00:35:52;;;;;;;;;;;;;;;13.01;100.00;95932.75;5079612;28;20329;-72
2023/05/06 00:38:19;;;;;;;;;;;;;;;13.01;100.00;95930.16;5086520;28;19924;-72
2023/05/06 00:40:46;;;;;;;;;;;;;;;12.91;100.00;95935.19;5085164;28;20605;-73
2023/05/06 00:43:13;;;;;;;;;;;;;;;12.71;100.00;95933.13;5085148;28;19951;-73
2023/05/06 00:45:39;;;;;;;;;;;;;;;12.82;100.00;95933.22;5083233;28;20010;-72
2023/05/06 00:48:06;;;;;;;;;;;;;;;12.87;100.00;95922.50;5088918;28;19923;-72
2023/05/06 00:50:33;;;;;;;;;;;;;;;12.90;100.00;95923.09;5085866;28;20353;-73
2023/05/06 00:52:59;;;;;;;;;;;;;;;12.88;100.00;95916.38;5078267;28;19925;-72
2023/05/06 00:55:27;;;;;;;;;;;;;;;12.87;100.00;95917.28;5073333;28;20019;-73
2023/05/06 00:57:54;;;;;;;;;;;;;;;12.90;100.00;95912.72;5091552;28;19928;-72
2023/05/06 01:00:21;;;;;;;;;;;;;;;12.86;100.00;95919.06;5078729;28;19978;-73
2023/05/06 01:02:47;;;;;;;;;;;;;;;12.69;100.00;95930.63;5067789;28;19928;-73
2023/05/06 01:05:14;;;;;;;;;;;;;;;12.72;100.00;95922.63;5081598;28;19925;-72
2023/05/06 01:07:42;;;;;;;;;;;;;;;12.33;100.00;95920.97;5073797;28;19928;-73
2023/05/06 01:10:17;;;;;;;;;;;;;;;12.42;100.00;95922.97;5075782;28;20373;-73
2023/05/06 01:12:47;;;;;;;;;;;;;;;12.43;100.00;95919.44;5080324;28;20391;-72
2023/05/06 01:15:20;;;;;;;;;;;;;;;12.37;100.00;95919.81;5083926;28;19977;-72
2023/05/06 01:17:48;;;;;;;;;;;;;;;12.33;100.00;95919.19;5085727;28;19977;-73
2023/05/06 01:20:16;;;;;;;;;;;;;;;12.30;100.00;95922.00;5084381;28;20007;-73
2023/05/06 01:22:43;;;;;;;;;;;;;;;12.37;100.00;95916.41;5080973;28;19935;-73
2023/05/06 01:25:17;;;;;;;;;;;;;;;12.41;100.00;95925.66;5084288;28;19924;-72
2023/05/06 01:27:43;;;;;;;;;;;;;;;12.45;100.00;95925.34;5074231;28;20375;-72
2023/05/06 01:30:10;;;;;;;;;;;;;;;12.47;100.00;95925.25;5077285;28;20283;-73
2023/05/06 01:32:44;;;;;;;;;;;;;;;12.48;100.00;95935.53;5070380;28;20288;-72
2023/05/06 01:35:15;;;;;;;;;;;;;;;12.42;100.00;95932.50;5082440;28;19924;-73
2023/05/06 01:37:44;;;;;;;;;;;;;;;12.27;100.00;95924.81;5085697;28;19924;-72
2023/05/06 01:40:12;;;;;;;;;;;;;;;12.17;100.00;95928.97;5082667;28;19924;-72
2023/05/06 01:42:40;;;;;;;;;;;;;;;12.12;100.00;95933.63;5084479;28;19924;-73
2023/05/06 01:45:07;;;;;;;;;;;;;;;12.20;100.00;95943.50;5085970;28;19974;-72
2023/05/06 01:47:35;;;;;;;;;;;;;;;12.13;100.00;95935.28;5083555;28;19928;-73
2023/05/06 01:50:03;;;;;;;;;;;;;;;12.18;100.00;95932.38;5083029;28;19925;-73
2023/05/06 01:52:29;;;;;;;;;;;;;;;12.22;100.00;95939.03;5086404;28;19939;-72
2023/05/06 01:54:55;;;;;;;;;;;;;;;12.24;100.00;95934.59;5082644;28;19924;-72
2023/05/06 01:57:21;;;;;;;;;;;;;;;12.24;100.00;95925.03;5076702;28;19925;-72
2023/05/06 01:59:49;;;;;;;;;;;;;;;12.15;100.00;95930.00;5080754;28;19928;-72
2023/05/06 02:02:15;;;;;;;;;;;;;;;12.13;100.00;95916.28;5080143;28;19931;-72
2023/05/06 02:04:41;;;;;;;;;;;;;;;12.22;100.00;95926.06;5087489;28;19985;-73
2023/05/06 02:07:08;;;;;;;;;;;;;;;11.95;100.00;95933.91;5085773;28;19928;-72
2023/05/06 02:09:34;;;;;;;;;;;;;;;11.97;100.00;95937.22;5081310;28;20382;-72
2023/05/06 02:12:00;;;;;;;;;;;;;;;12.03;100.00;95929.88;5086324;28;20374;-73
2023/05/06 02:14:27;;;;;;;;;;;;;;;12.06;100.00;95929.69;5080401;28;20333;-72
2023/05/06 02:16:55;;;;;;;;;;;;;;;12.03;100.00;95922.09;5086460;28;19932;-70
2023/05/06 02:19:21;;;;;;;;;;;;;;;11.95;100.00;95931.31;5082937;28;20043;-72
2023/05/06 02:21:47;;;;;;;;;;;;;;;11.93;100.00;95923.63;5075703;28;19928;-72
2023/05/06 02:24:13;;;;;;;;;;;;;;;12.01;100.00;95933.50;5083724;28;19925;-73
2023/05/06 02:26:40;;;;;;;;;;;;;;;12.01;100.00;95933.50;5077946;28;19928;-72
2023/05/06 02:29:06;;;;;;;;;;;;;;;11.85;100.00;95925.88;5081772;28;19929;-72
2023/05/06 02:31:32;;;;;;;;;;;;;;;11.96;100.00;95920.81;5080918;28;20401;-72
2023/05/06 02:34:00;;;;;;;;;;;;;;;11.92;100.00;95927.16;5074086;28;20012;-72
2023/05/06 02:36:27;;;;;;;;;;;;;;;11.97;100.00;95916.47;5077584;28;19928;-72
2023/05/06 02:38:54;;;;;;;;;;;;;;;11.96;100.00;95914.81;5074037;28;20015;-73
2023/05/06 02:41:20;;;;;;;;;;;;;;;11.90;100.00;95913.44;5081973;28;19924;-73
2023/05/06 02:43:46;;;;;;;;;;;;;;;11.72;100.00;95920.66;5078004;28;19932;-73
2023/05/06 02:46:12;;;;;;;;;;;;;;;11.76;100.00;95916.91;5073428;28;19932;-73
2023/05/06 02:48:39;;;;;;;;;;;;;;;11.84;100.00;95919.88;5087023;28;19924;-72
2023/05/06 02:51:07;;;;;;;;;;;;;;;11.88;100.00;95910.13;5084050;28;20275;-72
2023/05/06 02:53:33;;;;;;;;;;;;;;;11.82;100.00;95918.25;5083365;28;19928;-73
2023/05/06 02:55:59;;;;;;;;;;;;;;;11.83;100.00;95913.03;5082885;28;19943;-73
2023/05/06 02:58:26;;;;;;;;;;;;;;;11.84;100.00;95921.63;5089935;28;19928;-73
2023/05/06 03:00:52;;;;;;;;;;;;;;;11.79;100.00;95915.88;5081561;28;19972;-72
2023/05/06 03:03:21;;;;;;;;;;;;;;;11.85;100.00;95918.94;5087035;28;21318;-73
2023/05/06 03:05:47;;;;;;;;;;;;;;;11.80;100.00;95915.78;5081260;28;19958;-72
2023/05/06 03:08:15;;;;;;;;;;;;;;;11.88;100.00;95912.72;5086397;28;19977;-73
2023/05/06 03:10:41;;;;;;;;;;;;;;;11.88;100.00;95902.34;5075043;28;19971;-72
2023/05/06 03:13:07;;;;;;;;;;;;;;;11.86;100.00;95909.38;5085366;28;20367;-73
2023/05/06 03:15:33;;;;;;;;;;;;;;;11.82;100.00;95907.88;5085680;28;19928;-73
2023/05/06 03:18:00;;;;;;;;;;;;;;;11.58;100.00;95915.50;5086859;28;19977;-72
2023/05/06 03:20:27;;;;;;;;;;;;;;;11.57;100.00;95911.25;5080850;28;20020;-72
2023/05/06 03:22:53;;;;;;;;;;;;;;;11.53;100.00;95907.16;5089187;28;19960;-72
2023/05/06 03:25:21;;;;;;;;;;;;;;;11.54;100.00;95903.66;5083812;28;19924;-72
2023/05/06 03:27:47;;;;;;;;;;;;;;;11.60;100.00;95904.09;5082081;28;19932;-74
2023/05/06 03:30:14;;;;;;;;;;;;;;;11.58;100.00;95905.97;5085028;28;19977;-74
2023/05/06 03:32:40;;;;;;;;;;;;;;;11.57;100.00;95898.28;5080837;28;20019;-74
2023/05/06 03:35:07;;;;;;;;;;;;;;;11.46;100.00;95900.72;5084048;28;19924;-73
2023/05/06 03:37:33;;;;;;;;;;;;;;;11.72;100.00;95902.47;5086331;28;19924;-74
2023/05/06 03:40:02;;;;;;;;;;;;;;;11.56;100.00;95899.19;5081908;28;19978;-73
2023/05/06 03:42:30;;;;;;;;;;;;;;;11.47;100.00;95902.41;5082328;28;19935;-74
2023/05/06 03:44:56;;;;;;;;;;;;;;;11.38;100.00;95898.63;5078549;28;19939;-74
2023/05/06 03:47:22;;;;;;;;;;;;;;;11.25;100.00;95900.34;5076311;28;19928;-73
2023/05/06 03:49:49;;;;;;;;;;;;;;;11.22;100.00;95897.94;5083568;28;19928;-73
2023/05/06 03:52:15;;;;;;;;;;;;;;;11.21;100.00;95910.06;5085429;28;19931;-73
2023/05/06 03:54:41;;;;;;;;;;;;;;;11.20;100.00;95904.97;5084000;28;19924;-73
2023/05/06 03:57:07;;;;;;;;;;;;;;;11.22;100.00;95898.75;5077594;28;20302;-73
2023/05/06 03:59:35;;;;;;;;;;;;;;;10.95;100.00;95905.69;5087858;28;19924;-74
2023/05/06 04:02:01;;;;;;;;;;;;;;;10.90;100.00;95901.63;5085910;28;20393;-73
2023/05/06 04:04:27;;;;;;;;;;;;;;;10.92;100.00;95908.47;5083735;28;19932;-73
2023/05/06 04:06:54;;;;;;;;;;;;;;;11.04;100.00;95899.91;5089700;28;19924;-73
2023/05/06 04:09:20;;;;;;;;;;;;;;;10.99;100.00;95907.16;5092072;28;20378;-73
2023/05/06 04:11:46;;;;;;;;;;;;;;;11.06;100.00;95904.09;5089536;28;20280;-73
2023/05/06 04:14:13;;;;;;;;;;;;;;;10.87;100.00;95903.56;5083686;28;19935;-74
2023/05/06 04:16:40;;;;;;;;;;;;;;;10.98;100.00;95906.34;5087935;28;19928;-74
2023/05/06 04:19:07;;;;;;;;;;;;;;;10.98;100.00;95905.50;5087143;28;19928;-73
2023/05/06 04:21:33;;;;;;;;;;;;;;;10.99;100.00;95899.38;5094039;28;20275;-73
2023/05/06 04:23:59;;;;;;;;;;;;;;;10.72;100.00;95902.75;5081965;28;19978;-73
2023/05/06 04:26:25;;;;;;;;;;;;;;;10.76;100.00;95906.81;5090191;28;19978;-73
2023/05/06 04:28:52;;;;;;;;;;;;;;;10.69;100.00;95904.72;5088564;28;19935;-72
2023/05/06 04:31:18;;;;;;;;;;;;;;;10.65;100.00;95906.66;5090357;28;20306;-72
2023/05/06 04:33:45;;;;;;;;;;;;;;;10.74;100.00;95908.66;5086821;28;20276;-74
2023/05/06 04:36:12;;;;;;;;;;;;;;;10.84;100.00;95912.38;5090297;28;20025;-73
2023/05/06 04:38:38;;;;;;;;;;;;;;;10.83;100.00;95908.13;5084578;28;19931;-73
2023/05/06 04:41:04;;;;;;;;;;;;;;;10.77;100.00;95916.25;5086552;28;19927;-73
2023/05/06 04:43:31;;;;;;;;;;;;;;;10.69;100.00;95915.91;5085432;28;19979;-73
2023/05/06 04:45:57;;;;;;;;;;;;;;;10.69;100.00;95918.47;5077888;28;20393;-73
2023/05/06 04:48:24;;;;;;;;;;;;;;;10.69;100.00;95925.44;5087838;28;19927;-74
2023/05/06 04:50:51;;;;;;;;;;;;;;;10.78;100.00;95922.25;5084926;28;19924;-74
2023/05/06 04:53:17;;;;;;;;;;;;;;;10.85;100.00;95929.56;5090894;28;19980;-74
2023/05/06 04:55:44;;;;;;;;;;;;;;;10.98;100.00;95934.84;5071950;28;20269;-73
2023/05/06 04:58:10;;;;;;;;;;;;;;;10.99;100.00;95933.06;5070292;28;19929;-74
2023/05/06 05:00:36;;;;;;;;;;;;;;;11.02;100.00;95930.31;5074231;28;19924;-73
2023/05/06 05:03:03;;;;;;;;;;;;;;;10.94;100.00;95938.56;5080552;28;19932;-73
2023/05/06 05:05:31;;;;;;;;;;;;;;;11.02;100.00;95938.06;5072762;28;19928;-73
2023/05/06 05:07:58;;;;;;;;;;;;;;;11.03;100.00;95944.91;5077734;28;19932;-73
2023/05/06 05:10:25;;;;;;;;;;;;;;;11.02;100.00;95951.03;5079797;28;19970;-74
2023/05/06 05:12:51;;;;;;;;;;;;;;;10.89;100.00;95948.34;5081565;28;19924;-73
2023/05/06 05:15:17;;;;;;;;;;;;;;;11.02;100.00;95951.03;5075379;28;19932;-74
2023/05/06 05:17:44;;;;;;;;;;;;;;;10.90;100.00;95948.28;5079203;28;19925;-73
2023/05/06 05:20:10;;;;;;;;;;;;;;;11.03;100.00;95944.91;5086080;28;19924;-74
2023/05/06 05:22:36;;;;;;;;;;;;;;;11.12;100.00;95945.19;5071607;28;19982;-73
2023/05/06 05:25:04;;;;;;;;;;;;;;;11.21;100.00;95948.97;5079264;28;19932;-74
2023/05/06 05:27:31;;;;;;;;;;;;;;;11.21;100.00;95953.31;5085612;28;19936;-74
2023/05/06 05:29:57;;;;;;;;;;;;;;;11.24;100.00;95953.97;5085675;28;19928;-74
2023/05/06 05:32:24;;;;;;;;;;;;;;;11.07;100.00;95956.75;5076617;28;19929;-74
2023/05/06 05:34:50;;;;;;;;;;;;;;;11.19;100.00;95955.16;5077837;28;20037;-73
2023/05/06 05:37:16;;;;;;;;;;;;;;;11.36;100.00;95952.34;5080820;28;19925;-74
2023/05/06 05:39:42;;;;;;;;;;;;;;;11.47;100.00;95949.09;5087058;28;19982;-74
2023/05/06 05:42:10;;;;;;;;;;;;;;;11.50;100.00;95948.91;5086453;28;20306;-74
2023/05/06 05:44:36;;;;;;;;;;;;;;;11.46;100.00;95948.25;5060329;28;19925;-74
2023/05/06 05:47:03;;;;;;;;;;;;;;;11.47;100.00;95949.09;5061029;28;19929;-72
2023/05/06 05:49:30;;;;;;;;;;;;;;;11.62;100.00;95950.69;5077653;28;19957;-72
2023/05/06 05:51:56;;;;;;;;;;;;;;;11.59;100.00;95956.06;5086051;28;19978;-72
2023/05/06 05:54:22;;;;;;;;;;;;;;;11.62;100.00;95961.91;5081342;28;19928;-72
2023/05/06 05:56:49;;;;;;;;;;;;;;;11.66;100.00;95959.94;5090900;28;19931;-72
2023/05/06 05:59:16;;;;;;;;;;;;;;;11.41;100.00;95954.66;5084676;28;19931;-72
2023/05/06 06:01:43;;;;;;;;;;;;;;;11.38;100.00;95956.53;5079605;28;19932;-72
2023/05/06 06:04:09;;;;;;;;;;;;;;;11.53;100.00;95952.13;5077287;28;19936;-73
2023/05/06 06:06:35;;;;;;;;;;;;;;;11.44;100.00;95960.47;5083944;28;19970;-72
2023/05/06 06:09:02;;;;;;;;;;;;;;;11.35;100.00;95956.72;5080881;28;19928;-72
2023/05/06 06:11:28;;;;;;;;;;;;;;;11.59;100.00;95961.25;5078211;28;20255;-71
2023/05/06 06:13:54;;;;;;;;;;;;;;;11.80;100.00;95957.31;5086249;28;19928;-73
2023/05/06 06:16:22;;;;;;;;;;;;;;;12.01;100.00;95960.28;5075833;28;19924;-73
2023/05/06 06:18:48;;;;;;;;;;;;;;;12.25;100.00;95959.63;5076129;28;19933;-73
2023/05/06 06:21:15;;;;;;;;;;;;;;;12.50;100.00;95959.63;5080055;28;20031;-73
2023/05/06 06:23:41;;;;;;;;;;;;;;;12.67;100.00;95966.28;5082914;28;20428;-74
2023/05/06 06:26:07;;;;;;;;;;;;;;;12.89;100.00;95967.41;5079978;28;19928;-75
2023/05/06 06:28:34;;;;;;;;;;;;;;;12.98;100.00;95967.63;5085518;28;19924;-74
2023/05/06 06:31:00;;;;;;;;;;;;;;;13.21;100.00;95971.22;5083765;28;19925;-74
2023/05/06 06:33:28;;;;;;;;;;;;;;;13.27;100.00;95967.38;5087982;28;19927;-74
2023/05/06 06:35:54;;;;;;;;;;;;;;;13.36;100.00;95965.91;5087250;28;19928;-73
2023/05/06 06:38:20;;;;;;;;;;;;;;;13.72;100.00;95971.09;5083641;28;20074;-74
2023/05/06 06:40:47;;;;;;;;;;;;;;;13.93;100.00;95962.66;5083518;28;19928;-73
2023/05/06 06:43:13;;;;;;;;;;;;;;;13.59;100.00;95972.06;5081784;28;19978;-74
2023/05/06 06:45:39;;;;;;;;;;;;;;;13.68;100.00;95971.41;5080346;28;19932;-74
2023/05/06 06:48:06;;;;;;;;;;;;;;;13.87;100.00;95961.34;5077172;28;19924;-73
2023/05/06 06:50:33;;;;;;;;;;;;;;;14.24;100.00;95963.84;5079671;28;19950;-74
2023/05/06 06:53:00;;;;;;;;;;;;;;;14.58;100.00;95969.19;5087086;28;19928;-74
2023/05/06 06:55:27;;;;;;;;;;;;;;;14.92;100.00;95970.03;5080108;28;19978;-75
2023/05/06 06:57:53;;;;;;;;;;;;;;;15.08;100.00;95969.69;5081279;28;19999;-74
2023/05/06 07:00:19;;;;;;;;;;;;;;;14.91;100.00;95968.38;5084774;28;19954;-74
2023/05/06 07:02:46;;;;;;;;;;;;;;;15.15;100.00;95970.88;5077172;28;19970;-75
2023/05/06 07:05:13;;;;;;;;;;;;;;;15.56;100.00;95970.22;5084318;28;19935;-74
2023/05/06 07:07:40;;;;;;;;;;;;;;;15.86;100.00;95966.94;5085795;28;19932;-74
2023/05/06 07:10:08;;;;;;;;;;;;;;;16.09;100.00;95972.94;5086960;28;19924;-74
2023/05/06 07:12:34;;;;;;;;;;;;;;;16.19;100.00;95966.00;5077075;28;19928;-74
2023/05/06 07:15:03;;;;;;;;;;;;;;;15.55;100.00;95972.97;5078139;28;19986;-74
2023/05/06 07:17:30;;;;;;;;;;;;;;;16.00;100.00;95976.28;5078183;28;19928;-74
2023/05/06 07:19:56;;;;;;;;;;;;;;;15.71;100.00;95971.63;5073045;28;19924;-74
2023/05/06 07:22:22;;;;;;;;;;;;;;;16.26;100.00;95983.78;5082369;28;20383;-75
2023/05/06 07:24:50;;;;;;;;;;;;;;;16.26;100.00;95975.94;5083975;28;20317;-75
2023/05/06 07:27:16;;;;;;;;;;;;;;;16.33;100.00;95974.50;5080686;28;19970;-75
2023/05/06 07:29:42;;;;;;;;;;;;;;;15.94;100.00;95975.03;5086623;28;19928;-75
2023/05/06 07:32:09;;;;;;;;;;;;;;;15.95;100.00;95981.06;5074761;28;19924;-75
2023/05/06 07:34:35;;;;;;;;;;;;;;;15.61;100.00;95981.13;5081044;28;19968;-75
2023/05/06 07:37:02;;;;;;;;;;;;;;;15.44;100.00;95979.03;5079755;28;20271;-75
2023/05/06 07:39:28;;;;;;;;;;;;;;;15.18;100.00;95974.06;5085923;28;19929;-75
2023/05/06 07:41:56;;;;;;;;;;;;;;;15.31;100.00;95983.53;5086472;28;20381;-74
2023/05/06 07:44:22;;;;;;;;;;;;;;;15.13;100.00;95971.00;5090937;28;19928;-74
2023/05/06 07:46:49;;;;;;;;;;;;;;;15.29;100.00;95977.63;5088732;28;19928;-75
2023/05/06 07:49:15;;;;;;;;;;;;;;;15.29;100.00;95982.84;5086579;28;20378;-74
2023/05/06 07:51:41;;;;;;;;;;;;;;;15.43;100.00;95979.97;5092832;28;19928;-73
2023/05/06 07:54:08;;;;;;;;;;;;;;;15.84;100.00;95991.56;5085312;28;20006;-75
2023/05/06 07:56:34;;;;;;;;;;;;;;;15.60;100.00;95984.69;5089190;28;19924;-74
2023/05/06 07:59:02;;;;;;;;;;;;;;;15.79;100.00;95997.13;5081497;28;19928;-74
2023/05/06 08:01:28;;;;;;;;;;;;;;;16.05;100.00;95995.03;5083421;28;19925;-75
2023/05/06 08:03:55;;;;;;;;;;;;;;;16.05;100.00;95994.19;5085474;28;20442;-74
2023/05/06 08:06:21;;;;;;;;;;;;;;;16.77;100.00;95993.53;5088616;28;20298;-74
2023/05/06 08:08:47;;;;;;;;;;;;;;;16.34;100.00;96002.28;5081306;28;20279;-74
2023/05/06 08:11:13;;;;;;;;;;;;;;;16.67;100.00;95989.03;5081335;28;19924;-74
2023/05/06 08:13:40;;;;;;;;;;;;;;;15.96;100.00;95998.41;5087015;28;19950;-75
2023/05/06 08:16:08;;;;;;;;;;;;;;;15.93;100.00;95996.03;5087278;28;20326;-74
2023/05/06 08:18:34;;;;;;;;;;;;;;;15.93;100.00;95994.25;5088007;28;20321;-73
2023/05/06 08:21:00;;;;;;;;;;;;;;;15.68;100.00;95997.16;5088187;28;19928;-74
2023/05/06 08:23:26;;;;;;;;;;;;;;;15.76;100.00;95994.78;5081101;28;19925;-72
2023/05/06 08:25:53;;;;;;;;;;;;;;;16.11;100.00;96002.38;5084009;28;19977;-75
2023/05/06 08:28:19;;;;;;;;;;;;;;;16.68;100.00;95997.69;5093069;28;19931;-74
2023/05/06 08:30:47;;;;;;;;;;;;;;;17.49;100.00;95993.44;5085915;28;20286;-75
2023/05/06 08:33:14;;;;;;;;;;;;;;;17.07;100.00;95998.78;5087434;28;19964;-75
2023/05/06 08:35:41;;;;;;;;;;;;;;;17.70;100.00;95998.59;5083856;28;19928;-75
2023/05/06 08:38:07;;;;;;;;;;;;;;;18.34;100.00;96002.56;5083807;28;19936;-75
2023/05/06 08:40:34;;;;;;;;;;;;;;;18.45;100.00;95991.91;5088914;28;19924;-75
2023/05/06 08:43:02;;;;;;;;;;;;;;;19.03;100.00;95989.22;5091864;28;19924;-74
2023/05/06 08:45:29;;;;;;;;;;;;;;;19.38;95.10;96000.00;5083073;28;19928;-74
2023/05/06 08:47:55;;;;;;;;;;;;;;;19.56;95.46;95990.38;5079191;28;19924;-75
2023/05/06 08:50:23;;;;;;;;;;;;;;;19.37;92.91;95996.56;5086959;28;19927;-74
2023/05/06 08:52:50;;;;;;;;;;;;;;;19.54;84.83;95993.16;5084345;28;19924;-75
2023/05/06 08:55:17;;;;;;;;;;;;;;;19.42;91.32;96004.81;5081409;28;19969;-75
2023/05/06 08:57:45;;;;;;;;;;;;;;;19.49;87.84;96002.44;5084689;28;19924;-75
2023/05/06 09:00:12;;;;;;;;;;;;;;;19.92;88.82;96004.47;5082662;28;19935;-75
2023/05/06 09:02:38;;;;;;;;;;;;;;;19.14;76.74;96001.34;5087778;28;20386;-76
2023/05/06 09:05:05;;;;;;;;;;;;;;;18.77;77.55;95996.06;5076927;28;19925;-74
2023/05/06 09:07:33;;;;;;;;;;;;;;;18.41;79.15;95998.41;5086205;28;20349;-75
2023/05/06 09:09:59;;;;;;;;;;;;;;;18.42;89.01;96000.06;5083920;28;19933;-75
2023/05/06 09:12:26;;;;;;;;;;;;;;;17.46;83.76;96000.72;5084066;28;19924;-75
2023/05/06 09:14:54;;;;;;;;;;;;;;;17.26;86.70;95990.19;5081803;28;19967;-75
2023/05/06 09:17:22;;;;;;;;;;;;;;;17.71;86.83;95994.19;5083575;28;19928;-75
2023/05/06 09:19:50;;;;;;;;;;;;;;;17.81;82.87;95988.03;5078482;28;20329;-75
2023/05/06 09:22:17;;;;;;;;;;;;;;;17.37;84.34;95989.25;5087657;28;19924;-75
2023/05/06 09:24:55;;;;;;;;;;;;;;;17.29;85.70;95995.16;5083158;28;19955;-75
2023/05/06 09:27:21;;;;;;;;;;;;;;;17.47;86.85;95989.31;5089129;28;20398;-75
2023/05/06 09:29:59;;;;;;;;;;;;;;;17.37;84.38;95986.66;5084345;28;19932;-75
2023/05/06 09:32:26;;;;;;;;;;;;;;;17.59;84.78;95986.44;5089389;28;20382;-75
2023/05/06 09:34:52;;;;;;;;;;;;;;;17.53;86.74;95986.13;5084855;28;19971;-75
2023/05/06 09:37:19;;;;;;;;;;;;;;;17.77;87.75;95983.22;5088805;28;19971;-75
2023/05/06 09:39:47;;;;;;;;;;;;;;;18.80;85.78;95980.00;5083551;28;20011;-75
2023/05/06 09:42:14;;;;;;;;;;;;;;;18.98;90.47;95983.56;5080468;28;19924;-75
2023/05/06 09:44:40;;;;;;;;;;;;;;;19.22;83.37;95972.56;5078762;28;19924;-75
2023/05/06 09:47:07;;;;;;;;;;;;;;;19.34;77.07;95971.41;5074939;28;19931;-75
2023/05/06 09:49:34;;;;;;;;;;;;;;;19.71;75.24;95969.72;5079141;28;19932;-75
2023/05/06 09:52:01;;;;;;;;;;;;;;;19.58;81.21;95964.81;5086797;28;19956;-75
2023/05/06 09:54:28;;;;;;;;;;;;;;;19.65;73.93;95970.31;5083449;28;20018;-75
2023/05/06 09:56:58;;;;;;;;;;;;;;;19.85;72.94;95969.22;5079926;28;19931;-75
2023/05/06 09:59:28;;;;;;;;;;;;;;;19.89;75.60;95964.50;5087427;28;19931;-75
2023/05/06 10:01:55;;;;;;;;;;;;;;;19.82;83.80;95970.34;5082524;28;20302;-75
2023/05/06 10:04:25;;;;;;;;;;;;;;;19.56;79.55;95962.31;5080587;28;19928;-75
2023/05/06 10:06:55;;;;;;;;;;;;;;;19.64;73.00;95963.41;5076194;28;19924;-75
2023/05/06 10:09:22;;;;;;;;;;;;;;;19.83;69.17;95971.16;5080931;28;20545;-74
2023/05/06 10:11:50;;;;;;;;;;;;;;;19.95;73.47;95958.63;5083534;28;20294;-74
2023/05/06 10:14:18;;;;;;;;;;;;;;;20.05;68.75;95960.22;5076318;28;19928;-74
2023/05/06 10:16:45;;;;;;;;;;;;;;;20.23;70.84;95964.66;5076135;28;19944;-74
2023/05/06 10:19:14;;;;;;;;;;;;;;;20.07;70.19;95949.56;5082907;28;19981;-74
2023/05/06 10:21:43;;;;;;;;;;;;;;;20.13;71.06;95948.94;5090257;28;19928;-74
2023/05/06 10:24:11;;;;;;;;;;;;;;;20.30;66.06;95942.84;5081270;28;20470;-74
2023/05/06 10:26:38;;;;;;;;;;;;;;;20.60;69.47;95945.25;5085875;28;19935;-75
2023/05/06 10:29:08;;;;;;;;;;;;;;;20.80;72.91;95944.03;5075416;28;20011;-74
2023/05/06 10:31:38;;;;;;;;;;;;;;;20.66;64.25;95934.94;5075765;28;19931;-74
2023/05/06 10:34:07;;;;;;;;;;;;;;;20.14;69.95;95940.09;5077045;28;19951;-74
2023/05/06 10:36:35;;;;;;;;;;;;;;;19.86;67.92;95936.69;5080046;28;19928;-74
2023/05/06 10:39:03;;;;;;;;;;;;;;;19.89;71.72;95932.97;5082986;28;19936;-74
2023/05/06 10:41:30;;;;;;;;;;;;;;;19.44;67.39;95925.88;5084410;28;19924;-74
2023/05/06 10:43:58;;;;;;;;;;;;;;;19.62;71.50;95931.19;5083318;28;19954;-74
2023/05/06 10:46:25;;;;;;;;;;;;;;;19.80;66.59;95930.25;5072225;28;19924;-74
2023/05/06 10:49:10;;;;;;;;;;;;;;;19.82;67.65;95922.22;5079109;28;19990;-74
2023/05/06 10:51:38;;;;;;;;;;;;;;;19.81;71.86;95918.75;5080433;28;20627;-74
2023/05/06 10:54:05;;;;;;;;;;;;;;;19.49;77.63;95927.09;5078898;28;19932;-74
2023/05/06 10:56:33;;;;;;;;;;;;;;;19.26;77.61;95910.91;5086280;28;19983;-74
2023/05/06 10:59:06;;;;;;;;;;;;;;;18.97;82.31;95908.41;5087927;28;19924;-74
2023/05/06 11:01:33;;;;;;;;;;;;;;;18.92;78.16;95912.47;5086893;28;19935;-74
2023/05/06 11:04:02;;;;;;;;;;;;;;;18.82;75.18;95904.63;5087594;28;20379;-74
2023/05/06 11:06:35;;;;;;;;;;;;;;;18.94;77.12;95898.19;5086654;28;20294;-74
2023/05/06 11:09:03;;;;;;;;;;;;;;;18.88;74.50;95911.91;5082396;28;20028;-74
2023/05/06 11:11:48;;;;;;;;;;;;;;;18.83;80.30;95914.94;5084526;28;20024;-74
2023/05/06 11:14:15;;;;;;;;;;;;;;;18.72;80.16;95916.94;5083121;28;20382;-74
2023/05/06 11:16:48;;;;;;;;;;;;;;;18.80;82.04;95906.53;5076199;28;19928;-74
2023/05/06 11:19:18;;;;;;;;;;;;;;;19.06;83.16;95904.13;5081803;28;20386;-74
2023/05/06 11:21:44;;;;;;;;;;;;;;;19.06;73.05;95901.50;5090977;28;19985;-74
2023/05/06 11:24:13;;;;;;;;;;;;;;;19.45;79.74;95902.09;5080534;28;20417;-74
2023/05/06 11:26:43;;;;;;;;;;;;;;;19.40;76.93;95904.34;5084495;28;20011;-74
2023/05/06 11:29:09;;;;;;;;;;;;;;;19.33;76.44;95901.47;5080959;28;19931;-74
2023/05/06 11:31:38;;;;;;;;;;;;;;;19.23;72.98;95897.25;5089098;28;19924;-74
2023/05/06 11:34:07;;;;;;;;;;;;;;;19.05;72.15;95898.00;5077701;28;19928;-74
2023/05/06 11:36:33;;;;;;;;;;;;;;;18.98;70.75;95896.94;5087885;28;19925;-74
2023/05/06 11:39:04;;;;;;;;;;;;;;;18.95;73.91;95896.41;5081861;28;20342;-74
2023/05/06 11:41:32;;;;;;;;;;;;;;;18.58;76.76;95900.66;5087672;28;19928;-75
2023/05/06 11:43:58;;;;;;;;;;;;;;;18.66;75.24;95901.75;5071820;28;19928;-75
2023/05/06 11:46:29;;;;;;;;;;;;;;;18.69;72.69;95910.16;5080842;28;19928;-75
2023/05/06 11:48:55;;;;;;;;;;;;;;;18.82;75.61;95907.25;5080435;28;19924;-74
2023/05/06 11:51:21;;;;;;;;;;;;;;;18.97;74.25;95903.16;5089674;28;19924;-74
2023/05/06 11:53:48;;;;;;;;;;;;;;;19.08;75.22;95908.22;5087304;28;19928;-74
2023/05/06 11:56:14;;;;;;;;;;;;;;;19.16;77.04;95901.44;5085340;28;19932;-74
2023/05/06 11:58:42;;;;;;;;;;;;;;;19.20;76.51;95903.59;5085414;28;19928;-74
2023/05/06 12:01:09;;;;;;;;;;;;;;;19.14;71.97;95895.50;5080789;28;19932;-74
2023/05/06 12:03:35;;;;;;;;;;;;;;;19.30;78.35;95893.06;5082880;28;19977;-75
2023/05/06 12:06:01;;;;;;;;;;;;;;;19.18;81.32;95889.00;5081339;28;19932;-74
2023/05/06 12:08:29;;;;;;;;;;;;;;;19.41;75.31;95895.47;5083554;28;19951;-75
2023/05/06 12:10:58;;;;;;;;;;;;;;;19.31;74.06;95892.91;5083909;28;19925;-76
2023/05/06 12:13:24;;;;;;;;;;;;;;;19.27;72.15;95899.44;5081759;28;19924;-76
2023/05/06 12:15:53;;;;;;;;;;;;;;;19.47;76.96;95897.53;5082586;28;19981;-75
2023/05/06 12:18:20;;;;;;;;;;;;;;;19.34;68.63;95882.13;5080473;28;19977;-74
2023/05/06 12:20:47;;;;;;;;;;;;;;;19.34;78.84;95887.38;5075102;28;19934;-74
2023/05/06 12:23:14;;;;;;;;;;;;;;;19.44;78.73;95889.94;5082218;28;20011;-74
2023/05/06 12:25:41;;;;;;;;;;;;;;;19.58;77.29;95888.63;5080344;28;19924;-74
2023/05/06 12:28:14;;;;;;;;;;;;;;;19.49;67.65;95885.06;5090174;28;19928;-76
2023/05/06 12:30:40;;;;;;;;;;;;;;;19.53;69.51;95894.28;5080662;28;19928;-76
2023/05/06 12:33:08;;;;;;;;;;;;;;;19.34;68.14;95892.63;5085864;28;19923;-74
2023/05/06 12:35:35;;;;;;;;;;;;;;;19.52;69.59;95884.78;5083440;28;19925;-75
2023/05/06 12:38:08;;;;;;;;;;;;;;;19.44;72.82;95887.31;5088856;28;19932;-75
2023/05/06 12:40:34;;;;;;;;;;;;;;;19.43;69.44;95890.06;5081805;28;19924;-76